Time;durP1;ratioP1;P1;durP2;ratioP2;P2;SDS_P1;SDS_P2;PMS_P1;PMS_P2;Temp;Humidity;BMP_temperature;BMP_pressure;BME280_temperature;BME280_humidity;BME280_pressure;Samples;Min_cycle;Max_cycle;Signal;HPM_P1;HPM_P2
2023/12/22 00:01:07;;;;;;;;;;;;;;;-4.22;97.64;93987.78;5016276;28;20088;-66
2023/12/22 00:03:32;;;;;;;;;;;;;;;-4.53;98.30;93999.88;5017208;28;20044;-65
2023/12/22 00:05:57;;;;;;;;;;;;;;;-4.35;98.46;93997.56;5017271;28;20051;-66
2023/12/22 00:08:25;;;;;;;;;;;;;;;-3.89;97.34;93976.50;5019093;28;20071;-66
2023/12/22 00:10:51;;;;;;;;;;;;;;;-4.14;98.19;94010.56;5021244;28;20466;-66
2023/12/22 00:13:16;;;;;;;;;;;;;;;-4.80;98.25;94033.13;5018140;28;20003;-64
2023/12/22 00:15:44;;;;;;;;;;;;;;;-5.26;98.57;94029.81;5019760;28;20267;-64
2023/12/22 00:18:09;;;;;;;;;;;;;;;-5.38;99.38;94016.84;5021203;28;20012;-67
2023/12/22 00:20:35;;;;;;;;;;;;;;;-5.24;98.32;94039.13;5020955;28;20393;-67
2023/12/22 00:23:00;;;;;;;;;;;;;;;-4.70;97.07;94023.69;5020877;28;19974;-67
2023/12/22 00:25:25;;;;;;;;;;;;;;;-3.72;94.79;94035.72;5017671;28;20484;-68
2023/12/22 00:27:50;;;;;;;;;;;;;;;-2.86;92.72;94018.09;5019655;28;20040;-68
2023/12/22 00:30:16;;;;;;;;;;;;;;;-2.42;93.17;94003.88;5017693;28;19981;-68
2023/12/22 00:32:41;;;;;;;;;;;;;;;-1.87;87.20;94016.31;5019631;28;19989;-67
2023/12/22 00:35:06;;;;;;;;;;;;;;;-1.93;84.14;94016.88;5019725;28;20004;-67
2023/12/22 00:37:31;;;;;;;;;;;;;;;-1.77;87.91;94021.53;5019629;28;19989;-67
2023/12/22 00:39:57;;;;;;;;;;;;;;;-1.65;82.47;94032.63;5019561;28;19989;-68
2023/12/22 00:42:22;;;;;;;;;;;;;;;-1.34;80.41;94029.78;5020697;28;19982;-66
2023/12/22 00:44:47;;;;;;;;;;;;;;;-1.42;84.59;94021.03;5019877;28;20164;-68
2023/12/22 00:47:12;;;;;;;;;;;;;;;-1.29;80.32;94029.34;5019215;28;20673;-68
2023/12/22 00:49:38;;;;;;;;;;;;;;;-1.01;78.37;94029.38;5019901;28;19993;-68
2023/12/22 00:52:04;;;;;;;;;;;;;;;-0.37;76.32;94040.88;5020100;28;19997;-68
2023/12/22 00:54:31;;;;;;;;;;;;;;;-0.60;74.67;94051.75;5018443;28;20019;-67
2023/12/22 00:56:56;;;;;;;;;;;;;;;-1.17;79.17;94052.66;5013442;28;19998;-68
2023/12/22 00:59:22;;;;;;;;;;;;;;;-1.30;79.31;94047.75;5020189;28;20318;-68
2023/12/22 01:01:47;;;;;;;;;;;;;;;-1.17;78.03;94060.50;5020207;28;19996;-68
2023/12/22 01:04:13;;;;;;;;;;;;;;;-1.05;78.32;94051.50;5020188;28;20059;-69
2023/12/22 01:06:39;;;;;;;;;;;;;;;-0.58;74.62;94050.63;5020435;28;19977;-69
2023/12/22 01:09:04;;;;;;;;;;;;;;;-0.20;72.56;94060.97;5019919;28;20580;-69
2023/12/22 01:11:29;;;;;;;;;;;;;;;-0.47;73.47;94069.69;5020388;28;19973;-68
2023/12/22 01:13:54;;;;;;;;;;;;;;;-0.57;72.60;94064.53;5015605;28;20001;-68
2023/12/22 01:16:22;;;;;;;;;;;;;;;-0.89;77.72;94064.00;5020042;28;20001;-69
2023/12/22 01:18:47;;;;;;;;;;;;;;;-0.39;73.91;94074.19;5019317;28;20112;-67
2023/12/22 01:21:12;;;;;;;;;;;;;;;-0.57;73.80;94073.19;5019497;28;20088;-67
2023/12/22 01:23:37;;;;;;;;;;;;;;;-0.43;73.18;94061.38;5016561;28;20027;-70
2023/12/22 01:26:03;;;;;;;;;;;;;;;-0.74;74.96;94058.28;5018448;28;20096;-69
2023/12/22 01:28:28;;;;;;;;;;;;;;;-0.60;74.01;94039.47;5017118;28;20366;-69
2023/12/22 01:30:53;;;;;;;;;;;;;;;-0.70;71.52;94036.13;5018723;28;19981;-68
2023/12/22 01:33:18;;;;;;;;;;;;;;;-1.03;74.99;94062.66;5018607;28;20008;-68
2023/12/22 01:35:44;;;;;;;;;;;;;;;-1.07;76.62;94058.69;5019058;28;19986;-68
2023/12/22 01:38:09;;;;;;;;;;;;;;;-0.72;73.74;94040.66;5018747;28;19984;-68
2023/12/22 01:40:35;;;;;;;;;;;;;;;-1.02;74.19;94061.69;5018062;28;20414;-68
2023/12/22 01:43:01;;;;;;;;;;;;;;;-1.17;75.06;94055.28;5017758;28;19974;-68
2023/12/22 01:45:26;;;;;;;;;;;;;;;-0.86;72.45;94050.66;5018091;28;20112;-67
2023/12/22 01:47:52;;;;;;;;;;;;;;;-1.39;74.21;94065.94;5015740;28;20023;-67
2023/12/22 01:50:17;;;;;;;;;;;;;;;-1.40;73.61;94066.06;5018362;28;20052;-68
2023/12/22 01:52:42;;;;;;;;;;;;;;;-1.71;73.65;94069.72;5016570;28;20032;-67
2023/12/22 01:55:07;;;;;;;;;;;;;;;-2.16;76.56;94081.56;5018288;28;20665;-68
2023/12/22 01:57:34;;;;;;;;;;;;;;;-2.57;78.34;94081.66;5017056;28;20763;-69
2023/12/22 01:59:59;;;;;;;;;;;;;;;-2.43;76.48;94081.25;5018060;28;20231;-67
2023/12/22 02:02:25;;;;;;;;;;;;;;;-2.82;79.15;94075.97;5017867;28;19970;-66
2023/12/22 02:04:50;;;;;;;;;;;;;;;-2.82;78.87;94089.81;5017621;28;19986;-68
2023/12/22 02:07:15;;;;;;;;;;;;;;;-3.13;79.04;94097.66;5016804;28;19970;-68
2023/12/22 02:09:41;;;;;;;;;;;;;;;-3.52;81.54;94093.88;5017908;28;20040;-68
2023/12/22 02:12:06;;;;;;;;;;;;;;;-3.20;81.35;94092.13;5018207;28;19990;-67
2023/12/22 02:14:31;;;;;;;;;;;;;;;-2.89;78.65;94091.28;5016714;28;19966;-67
2023/12/22 02:17:10;;;;;;;;;;;;;;;-3.12;79.82;94077.66;5016199;28;19993;-67
2023/12/22 02:19:38;;;;;;;;;;;;;;;-2.68;79.88;94061.75;5019235;28;19977;-66
2023/12/22 02:22:07;;;;;;;;;;;;;;;-2.85;77.87;94063.22;5018489;28;20934;-67
2023/12/22 02:24:32;;;;;;;;;;;;;;;-3.39;79.69;94087.69;5013936;28;21466;-66
2023/12/22 02:27:05;;;;;;;;;;;;;;;-3.35;81.70;94067.41;5017883;28;20001;-66
2023/12/22 02:29:32;;;;;;;;;;;;;;;-3.73;81.96;94075.72;5016840;28;20433;-65
2023/12/22 02:31:57;;;;;;;;;;;;;;;-3.91;82.93;94086.66;5018725;28;19997;-66
2023/12/22 02:34:22;;;;;;;;;;;;;;;-4.01;83.58;94087.56;5016516;28;20541;-68
2023/12/22 02:36:48;;;;;;;;;;;;;;;-4.07;85.29;94066.28;5015892;28;20008;-66
2023/12/22 02:39:13;;;;;;;;;;;;;;;-4.35;86.01;94065.13;5016421;28;19977;-66
2023/12/22 02:41:39;;;;;;;;;;;;;;;-4.51;86.94;94075.94;5018205;28;20051;-65
2023/12/22 02:44:04;;;;;;;;;;;;;;;-5.13;90.14;94116.13;5016811;28;20032;-66
2023/12/22 02:46:29;;;;;;;;;;;;;;;-5.00;91.64;94079.69;5016780;28;19974;-66
2023/12/22 02:48:54;;;;;;;;;;;;;;;-4.88;91.08;94069.28;5017658;28;20008;-66
2023/12/22 02:51:20;;;;;;;;;;;;;;;-5.31;93.33;94076.06;5021071;28;20508;-65
2023/12/22 02:53:45;;;;;;;;;;;;;;;-5.36;94.74;94081.59;5017622;28;20001;-65
2023/12/22 02:56:10;;;;;;;;;;;;;;;-5.56;97.00;94090.88;5020860;28;20600;-65
2023/12/22 02:58:35;;;;;;;;;;;;;;;-5.20;95.70;94065.63;5017810;28;20054;-63
2023/12/22 03:01:01;;;;;;;;;;;;;;;-5.54;97.82;94071.66;5019670;28;19999;-64
2023/12/22 03:03:26;;;;;;;;;;;;;;;-5.34;98.33;94072.72;5017375;28;20182;-66
2023/12/22 03:05:51;;;;;;;;;;;;;;;-5.48;99.69;94058.22;5017405;28;19993;-64
2023/12/22 03:08:16;;;;;;;;;;;;;;;-5.47;99.93;94079.81;5019374;28;20001;-66
2023/12/22 03:10:42;;;;;;;;;;;;;;;-5.42;100.00;94054.34;5018997;28;20576;-65
2023/12/22 03:13:07;;;;;;;;;;;;;;;-5.35;100.00;94058.13;5020820;28;20119;-65
2023/12/22 03:15:32;;;;;;;;;;;;;;;-5.18;100.00;94057.75;5015419;28;19996;-66
2023/12/22 03:17:58;;;;;;;;;;;;;;;-4.66;100.00;94037.22;5016937;28;20088;-65
2023/12/22 03:20:23;;;;;;;;;;;;;;;-4.60;98.29;94047.13;5018087;28;20090;-65
2023/12/22 03:22:48;;;;;;;;;;;;;;;-4.69;99.90;94048.69;5018724;28;20711;-65
2023/12/22 03:25:13;;;;;;;;;;;;;;;-4.76;99.60;94051.91;5016969;28;19997;-66
2023/12/22 03:27:39;;;;;;;;;;;;;;;-4.80;99.36;94055.69;5016757;28;20496;-65
2023/12/22 03:30:04;;;;;;;;;;;;;;;-4.99;99.56;94051.94;5016219;28;20485;-65
2023/12/22 03:32:29;;;;;;;;;;;;;;;-5.08;100.00;94056.91;5017261;28;20520;-65
2023/12/22 03:34:55;;;;;;;;;;;;;;;-5.37;100.00;94049.59;5016091;28;19997;-65
2023/12/22 03:37:20;;;;;;;;;;;;;;;-5.24;100.00;94065.06;5017614;28;19998;-64
2023/12/22 03:39:45;;;;;;;;;;;;;;;-5.13;100.00;94081.59;5015942;28;19973;-66
2023/12/22 03:42:11;;;;;;;;;;;;;;;-4.93;100.00;94072.22;5017383;28;19981;-66
2023/12/22 03:44:36;;;;;;;;;;;;;;;-5.20;100.00;94069.06;5016888;28;20713;-65
2023/12/22 03:47:01;;;;;;;;;;;;;;;-5.36;100.00;94097.94;5014452;28;20060;-66
2023/12/22 03:49:26;;;;;;;;;;;;;;;-5.36;100.00;94082.38;5017112;28;19993;-65
2023/12/22 03:51:52;;;;;;;;;;;;;;;-5.10;100.00;94105.53;5015410;28;20016;-65
2023/12/22 03:54:17;;;;;;;;;;;;;;;-5.25;100.00;94111.88;5016026;28;20361;-65
2023/12/22 03:56:43;;;;;;;;;;;;;;;-5.34;100.00;94090.91;5016301;28;20466;-65
2023/12/22 03:59:08;;;;;;;;;;;;;;;-5.36;100.00;94084.19;5016119;28;19981;-66
2023/12/22 04:01:33;;;;;;;;;;;;;;;-5.05;100.00;94088.75;5018070;28;20016;-66
2023/12/22 04:03:59;;;;;;;;;;;;;;;-4.89;100.00;94073.63;5017224;28;22254;-66
2023/12/22 04:06:24;;;;;;;;;;;;;;;-4.72;99.38;94058.50;5016599;28;20032;-65
2023/12/22 04:08:49;;;;;;;;;;;;;;;-4.51;97.16;94076.75;5016557;28;19989;-66
2023/12/22 04:11:14;;;;;;;;;;;;;;;-4.37;96.81;94072.22;5018218;28;19974;-67
2023/12/22 04:13:40;;;;;;;;;;;;;;;-4.83;97.40;94103.47;5015981;28;20456;-67
2023/12/22 04:16:05;;;;;;;;;;;;;;;-5.04;100.00;94095.59;5017633;28;20029;-66
2023/12/22 04:18:31;;;;;;;;;;;;;;;-4.72;99.08;94084.47;5017821;28;20103;-67
2023/12/22 04:20:56;;;;;;;;;;;;;;;-4.82;98.22;94094.78;5017311;28;19998;-67
2023/12/22 04:23:22;;;;;;;;;;;;;;;-4.74;99.66;94082.00;5016044;28;20491;-65
2023/12/22 04:25:47;;;;;;;;;;;;;;;-4.45;98.02;94068.47;5016538;28;20487;-64
2023/12/22 04:28:12;;;;;;;;;;;;;;;-4.61;98.09;94083.63;5015026;28;19998;-65
2023/12/22 04:30:37;;;;;;;;;;;;;;;-4.57;99.01;94072.03;5017265;28;19982;-67
2023/12/22 04:33:03;;;;;;;;;;;;;;;-4.76;99.50;94104.66;5016448;28;19990;-65
2023/12/22 04:35:28;;;;;;;;;;;;;;;-4.62;99.08;94089.78;5016848;28;20235;-67
2023/12/22 04:37:53;;;;;;;;;;;;;;;-4.73;100.00;94094.03;5017022;28;20485;-67
2023/12/22 04:40:19;;;;;;;;;;;;;;;-4.57;100.00;94088.47;5017229;28;19994;-65
2023/12/22 04:42:44;;;;;;;;;;;;;;;-4.64;100.00;94079.50;5017634;28;20422;-70
2023/12/22 04:45:10;;;;;;;;;;;;;;;-4.43;98.62;94089.13;5017090;28;20207;-66
2023/12/22 04:47:35;;;;;;;;;;;;;;;-4.26;98.62;94084.34;5013755;28;20358;-67
2023/12/22 04:50:00;;;;;;;;;;;;;;;-4.36;98.97;94079.88;5016721;28;20060;-69
2023/12/22 04:52:25;;;;;;;;;;;;;;;-4.54;100.00;94086.56;5016632;28;20005;-67
2023/12/22 04:54:51;;;;;;;;;;;;;;;-4.79;100.00;94115.28;5017922;28;19973;-66
2023/12/22 04:57:16;;;;;;;;;;;;;;;-4.67;100.00;94077.16;5020483;28;19997;-65
2023/12/22 04:59:41;;;;;;;;;;;;;;;-4.57;100.00;94090.22;5019346;28;19978;-68
2023/12/22 05:02:06;;;;;;;;;;;;;;;-4.67;100.00;94121.31;5019903;28;19973;-66
2023/12/22 05:04:32;;;;;;;;;;;;;;;-4.98;100.00;94095.13;5020713;28;20023;-65
2023/12/22 05:06:57;;;;;;;;;;;;;;;-5.21;100.00;94090.78;5020683;28;19969;-67
2023/12/22 05:09:24;;;;;;;;;;;;;;;-5.35;100.00;94084.06;5018430;28;20454;-64
2023/12/22 05:11:50;;;;;;;;;;;;;;;-5.34;100.00;94093.50;5019728;28;19977;-65
2023/12/22 05:14:15;;;;;;;;;;;;;;;-5.16;99.92;94124.19;5016165;28;19976;-65
2023/12/22 05:16:40;;;;;;;;;;;;;;;-4.78;99.11;94092.75;5020374;28;20002;-68
2023/12/22 05:19:06;;;;;;;;;;;;;;;-3.87;97.42;94100.22;5020273;28;19996;-66
2023/12/22 05:21:31;;;;;;;;;;;;;;;-2.95;91.09;94092.63;5019543;28;20487;-67
2023/12/22 05:23:56;;;;;;;;;;;;;;;-2.05;87.22;94091.84;5014711;28;19965;-68
2023/12/22 05:26:21;;;;;;;;;;;;;;;-2.10;83.35;94104.50;5020350;28;19945;-69
2023/12/22 05:28:49;;;;;;;;;;;;;;;-1.57;82.83;94115.44;5018629;28;19969;-68
2023/12/22 05:31:14;;;;;;;;;;;;;;;-1.17;80.35;94102.28;5020152;28;20042;-68
2023/12/22 05:33:39;;;;;;;;;;;;;;;-0.77;75.05;94079.50;5019336;28;20249;-72
2023/12/22 05:36:05;;;;;;;;;;;;;;;-0.91;72.46;94083.41;5019874;28;19970;-68
2023/12/22 05:38:30;;;;;;;;;;;;;;;-0.87;75.41;94092.59;5019617;28;20688;-71
2023/12/22 05:40:56;;;;;;;;;;;;;;;-0.62;72.48;94098.13;5019608;28;19990;-68
2023/12/22 05:43:21;;;;;;;;;;;;;;;-0.03;70.43;94089.09;5016839;28;19925;-68
2023/12/22 05:45:46;;;;;;;;;;;;;;;-0.06;72.93;94108.53;5019242;28;20417;-66
2023/12/22 05:48:12;;;;;;;;;;;;;;;0.12;71.64;94105.06;5015937;28;19997;-68
2023/12/22 05:50:37;;;;;;;;;;;;;;;0.32;69.32;94103.97;5019107;28;19950;-67
2023/12/22 05:53:02;;;;;;;;;;;;;;;-0.25;72.78;94119.94;5018989;28;19964;-66
2023/12/22 05:55:28;;;;;;;;;;;;;;;-0.33;73.34;94110.22;5019549;28;20487;-67
2023/12/22 05:57:53;;;;;;;;;;;;;;;-0.10;71.66;94102.75;5019215;28;20320;-65
2023/12/22 06:00:19;;;;;;;;;;;;;;;0.05;71.39;94095.22;5019085;28;19971;-67
2023/12/22 06:02:44;;;;;;;;;;;;;;;-0.15;68.17;94099.75;5019024;28;19953;-68
2023/12/22 06:05:09;;;;;;;;;;;;;;;-0.27;72.02;94093.91;5018626;28;20002;-67
2023/12/22 06:07:34;;;;;;;;;;;;;;;-1.20;75.87;94098.19;5018073;28;19959;-66
2023/12/22 06:10:00;;;;;;;;;;;;;;;-1.87;80.48;94099.81;5019369;28;20184;-68
2023/12/22 06:12:25;;;;;;;;;;;;;;;-2.82;84.74;94105.44;5018630;28;20776;-67
2023/12/22 06:14:50;;;;;;;;;;;;;;;-3.60;88.24;94111.91;5015049;28;19995;-68
2023/12/22 06:17:16;;;;;;;;;;;;;;;-4.21;93.51;94103.81;5018453;28;19992;-67
2023/12/22 06:19:41;;;;;;;;;;;;;;;-4.23;95.25;94134.31;5019151;28;19990;-67
2023/12/22 06:22:06;;;;;;;;;;;;;;;-4.18;96.35;94108.75;5019581;28;20433;-67
2023/12/22 06:24:31;;;;;;;;;;;;;;;-4.79;100.00;94140.44;5013519;28;20231;-66
2023/12/22 06:26:57;;;;;;;;;;;;;;;-4.72;100.00;94167.59;5018852;28;19978;-66
2023/12/22 06:29:22;;;;;;;;;;;;;;;-4.66;100.00;94104.75;5017531;28;20080;-66
2023/12/22 06:31:50;;;;;;;;;;;;;;;-4.56;100.00;94125.63;5018843;28;19982;-65
2023/12/22 06:34:16;;;;;;;;;;;;;;;-4.44;100.00;94118.66;5018832;28;20005;-66
2023/12/22 06:36:42;;;;;;;;;;;;;;;-4.30;100.00;94097.59;5018202;28;20050;-65
2023/12/22 06:39:07;;;;;;;;;;;;;;;-4.29;100.00;94088.00;5018668;28;19978;-66
2023/12/22 06:41:33;;;;;;;;;;;;;;;-4.15;100.00;94102.50;5018557;28;20004;-66
2023/12/22 06:44:01;;;;;;;;;;;;;;;-4.17;100.00;94094.81;5018649;28;19997;-66
2023/12/22 06:46:27;;;;;;;;;;;;;;;-4.34;100.00;94145.56;5014851;28;19984;-64
2023/12/22 06:48:52;;;;;;;;;;;;;;;-4.26;100.00;94176.13;5018032;28;19993;-65
2023/12/22 06:51:20;;;;;;;;;;;;;;;-4.26;100.00;94157.09;5018799;28;19977;-64
2023/12/22 06:53:46;;;;;;;;;;;;;;;-4.19;100.00;94146.13;5013992;28;20209;-65
2023/12/22 06:56:18;;;;;;;;;;;;;;;-3.97;100.00;94140.97;5017686;28;20012;-66
2023/12/22 06:58:44;;;;;;;;;;;;;;;-3.76;99.68;94158.38;5018838;28;20363;-64
2023/12/22 07:01:09;;;;;;;;;;;;;;;-3.73;100.00;94153.75;5018280;28;20005;-65
2023/12/22 07:03:34;;;;;;;;;;;;;;;-3.83;100.00;94140.69;5017943;28;20265;-65
2023/12/22 07:06:58;;;;;;;;;;;;;;;-155.54;100.00;57697.75;5017793;28;19969;-64
2023/12/22 07:09:46;;;;;;;;;;;;;;;-155.54;100.00;57697.75;5017784;28;19993;-66
2023/12/22 07:13:09;;;;;;;;;;;;;;;-155.54;100.00;57697.75;5017832;28;19989;-66
2023/12/22 07:15:58;;;;;;;;;;;;;;;-155.54;100.00;57697.75;5015978;28;19997;-66
2023/12/22 07:18:25;;;;;;;;;;;;;;;-155.54;100.00;57697.75;5016648;28;20056;-65
2023/12/22 07:20:50;;;;;;;;;;;;;;;-155.54;100.00;57697.75;5017552;28;19993;-63
2023/12/22 07:23:15;;;;;;;;;;;;;;;-3.97;100.00;94203.38;5018012;28;20574;-64
2023/12/22 07:25:40;;;;;;;;;;;;;;;-3.94;100.00;94208.34;5016950;28;20134;-65
2023/12/22 07:28:06;;;;;;;;;;;;;;;-3.73;100.00;94204.94;5018027;28;20122;-65
2023/12/22 07:30:31;;;;;;;;;;;;;;;-3.58;100.00;94200.25;5018383;28;20581;-66
2023/12/22 07:32:56;;;;;;;;;;;;;;;-3.67;100.00;94205.25;5025134;28;20563;-66
2023/12/22 07:35:22;;;;;;;;;;;;;;;-3.54;100.00;94204.25;5022158;28;20001;-67
2023/12/22 07:37:49;;;;;;;;;;;;;;;-3.26;98.70;94212.41;5011034;28;20248;-64
2023/12/22 07:40:14;;;;;;;;;;;;;;;-3.20;98.72;94196.28;5020442;28;19997;-64
2023/12/22 07:42:40;;;;;;;;;;;;;;;-3.09;96.72;94190.16;5021161;28;19975;-65
2023/12/22 07:45:05;;;;;;;;;;;;;;;-2.97;96.11;94190.09;5016393;28;20560;-65
2023/12/22 07:47:31;;;;;;;;;;;;;;;-2.86;96.29;94203.03;5014400;28;19974;-67
2023/12/22 07:49:56;;;;;;;;;;;;;;;-2.90;95.77;94191.22;5023376;28;20011;-65
2023/12/22 07:52:21;;;;;;;;;;;;;;;-3.28;97.74;94190.88;5023266;28;20106;-66
2023/12/22 07:54:47;;;;;;;;;;;;;;;-3.29;97.19;94207.47;5020767;28;20432;-66
2023/12/22 07:57:12;;;;;;;;;;;;;;;-3.37;97.73;94209.88;5020899;28;19997;-64
2023/12/22 07:59:37;;;;;;;;;;;;;;;-3.34;97.85;94207.84;5022443;28;20545;-67
2023/12/22 08:02:03;;;;;;;;;;;;;;;-3.52;99.19;94213.59;5017616;28;19976;-66
2023/12/22 08:04:28;;;;;;;;;;;;;;;-3.62;97.42;94215.31;5012557;28;19989;-65
2023/12/22 08:06:53;;;;;;;;;;;;;;;-3.79;97.93;94233.13;5019724;28;19976;-67
2023/12/22 08:09:19;;;;;;;;;;;;;;;-4.10;100.00;94252.91;5015033;28;19989;-66
2023/12/22 08:11:46;;;;;;;;;;;;;;;-4.28;100.00;94255.19;5013291;28;20418;-65
2023/12/22 08:14:12;;;;;;;;;;;;;;;-4.12;100.00;94223.59;5015882;28;20111;-64
2023/12/22 08:16:37;;;;;;;;;;;;;;;-4.26;100.00;94245.47;5021052;28;20713;-65
2023/12/22 08:19:02;;;;;;;;;;;;;;;-4.38;100.00;94227.28;5018372;28;19978;-64
2023/12/22 08:21:27;;;;;;;;;;;;;;;-4.13;99.43;94230.59;5017240;28;19993;-64
2023/12/22 08:23:53;;;;;;;;;;;;;;;-4.14;99.72;94230.72;5018547;28;20645;-65
2023/12/22 08:26:19;;;;;;;;;;;;;;;-4.03;98.59;94225.50;5021891;28;19970;-66
2023/12/22 08:28:44;;;;;;;;;;;;;;;-4.08;99.25;94199.03;5024395;28;20518;-66
2023/12/22 08:31:10;;;;;;;;;;;;;;;-4.25;100.00;94229.78;5022919;28;20184;-76
2023/12/22 08:33:35;;;;;;;;;;;;;;;-4.13;100.00;94208.97;5019139;28;20020;-75
2023/12/22 08:36:00;;;;;;;;;;;;;;;-3.56;98.96;94217.41;5020168;28;20085;-76
2023/12/22 08:38:26;;;;;;;;;;;;;;;-3.81;97.92;94236.75;5021316;28;20436;-76
2023/12/22 08:40:51;;;;;;;;;;;;;;;-3.62;96.57;94274.31;5017797;28;19989;-75
2023/12/22 08:43:17;;;;;;;;;;;;;;;-3.71;96.70;94247.25;5020500;28;19974;-75
2023/12/22 08:45:42;;;;;;;;;;;;;;;-3.82;97.36;94281.94;5020584;28;20116;-75
2023/12/22 08:48:07;;;;;;;;;;;;;;;-3.95;98.98;94227.47;5019640;28;20031;-72
2023/12/22 08:50:33;;;;;;;;;;;;;;;-3.60;97.57;94223.81;5028136;28;20043;-72
2023/12/22 08:52:58;;;;;;;;;;;;;;;-3.48;96.06;94240.22;5022943;28;19997;-71
2023/12/22 08:55:23;;;;;;;;;;;;;;;-3.61;96.85;94219.56;5020370;28;20067;-70
2023/12/22 08:57:49;;;;;;;;;;;;;;;-3.70;98.33;94221.13;5021638;28;19992;-72
2023/12/22 09:00:14;;;;;;;;;;;;;;;-3.58;99.06;94229.72;5024559;28;20635;-71
2023/12/22 09:02:40;;;;;;;;;;;;;;;-3.64;99.56;94219.00;5022683;28;20565;-71
2023/12/22 09:05:07;;;;;;;;;;;;;;;-3.61;100.00;94214.34;5024906;28;20571;-70
2023/12/22 09:07:32;;;;;;;;;;;;;;;-3.49;99.54;94240.31;5027392;28;19973;-72
2023/12/22 09:09:57;;;;;;;;;;;;;;;-3.44;99.71;94230.34;5025871;28;19989;-72
2023/12/22 09:12:23;;;;;;;;;;;;;;;-3.25;99.57;94228.84;5027362;28;19993;-70
2023/12/22 09:14:49;;;;;;;;;;;;;;;-3.40;100.00;94223.94;5025765;28;19976;-70
2023/12/22 09:17:15;;;;;;;;;;;;;;;-3.36;100.00;94240.16;5022357;28;20001;-70
2023/12/22 09:19:42;;;;;;;;;;;;;;;-3.43;100.00;94214.63;5024658;28;19973;-69
2023/12/22 09:22:08;;;;;;;;;;;;;;;-3.46;100.00;94253.09;5026674;28;20453;-69
2023/12/22 09:24:33;;;;;;;;;;;;;;;-3.22;100.00;94220.78;5027253;28;19992;-70
2023/12/22 09:27:02;;;;;;;;;;;;;;;-3.17;100.00;94235.09;5025943;28;19980;-70
2023/12/22 09:29:28;;;;;;;;;;;;;;;-2.91;100.00;94231.28;5024878;28;20118;-69
2023/12/22 09:31:53;;;;;;;;;;;;;;;-3.08;100.00;94236.13;5025155;28;19977;-70
2023/12/22 09:34:18;;;;;;;;;;;;;;;-2.71;100.00;94232.22;5023531;28;20004;-70
2023/12/22 09:36:43;;;;;;;;;;;;;;;-2.87;100.00;94253.50;5023627;28;20210;-70
2023/12/22 09:39:09;;;;;;;;;;;;;;;-2.96;100.00;94231.66;5025607;28;20036;-69
2023/12/22 09:41:34;;;;;;;;;;;;;;;-2.98;100.00;94232.72;5018439;28;20396;-68
2023/12/22 09:43:59;;;;;;;;;;;;;;;-2.87;100.00;94232.66;5025850;28;19993;-68
2023/12/22 09:46:26;;;;;;;;;;;;;;;-2.70;100.00;94251.25;5025784;28;19974;-70
2023/12/22 09:48:51;;;;;;;;;;;;;;;-2.80;100.00;94215.56;5024146;28;20143;-70
2023/12/22 09:51:17;;;;;;;;;;;;;;;-2.89;100.00;94221.53;5025390;28;20056;-69
2023/12/22 09:53:42;;;;;;;;;;;;;;;-2.78;100.00;94228.47;5025131;28;19993;-68
2023/12/22 09:56:08;;;;;;;;;;;;;;;-2.71;100.00;94208.75;5021817;28;20058;-70
2023/12/22 09:58:35;;;;;;;;;;;;;;;-2.95;100.00;94209.84;5025634;28;19989;-68
2023/12/22 10:01:02;;;;;;;;;;;;;;;-2.86;100.00;94204.84;5023981;28;19989;-70
2023/12/22 10:03:27;;;;;;;;;;;;;;;-2.73;100.00;94186.38;5024135;28;19991;-69
2023/12/22 10:05:52;;;;;;;;;;;;;;;-2.57;100.00;94178.06;5022245;28;19994;-68
2023/12/22 10:08:19;;;;;;;;;;;;;;;-2.75;100.00;94202.97;5021723;28;20039;-71
2023/12/22 10:10:44;;;;;;;;;;;;;;;-2.86;100.00;94177.00;5025301;28;20084;-69
2023/12/22 10:13:10;;;;;;;;;;;;;;;-2.98;100.00;94198.88;5025402;28;19993;-70
2023/12/22 10:15:36;;;;;;;;;;;;;;;-2.74;100.00;94188.16;5026283;28;20586;-70
2023/12/22 10:18:02;;;;;;;;;;;;;;;-2.58;100.00;94168.63;5022618;28;19990;-70
2023/12/22 10:20:27;;;;;;;;;;;;;;;-2.73;100.00;94171.56;5022954;28;19990;-69
2023/12/22 10:22:52;;;;;;;;;;;;;;;-2.46;100.00;94159.72;5023479;28;19978;-68
2023/12/22 10:25:22;;;;;;;;;;;;;;;-2.40;100.00;94172.25;5024376;28;20016;-70
2023/12/22 10:27:48;;;;;;;;;;;;;;;-2.70;100.00;94142.66;5022766;28;20047;-69
2023/12/22 10:30:14;;;;;;;;;;;;;;;-2.62;100.00;94165.44;5021697;28;19983;-69
2023/12/22 10:32:41;;;;;;;;;;;;;;;-2.54;100.00;94152.56;5021579;28;20459;-69
2023/12/22 10:35:06;;;;;;;;;;;;;;;-2.46;100.00;94149.31;5024733;28;19997;-75
2023/12/22 10:37:32;;;;;;;;;;;;;;;-2.50;100.00;94161.78;5023864;28;20005;-75
2023/12/22 10:39:57;;;;;;;;;;;;;;;-2.27;100.00;94145.91;5023413;28;20547;-75
2023/12/22 10:42:22;;;;;;;;;;;;;;;-2.39;100.00;94162.63;5027412;28;20017;-75
2023/12/22 10:44:48;;;;;;;;;;;;;;;-2.21;100.00;94138.53;5019451;28;20502;-75
2023/12/22 10:47:13;;;;;;;;;;;;;;;-2.02;100.00;94122.06;5027718;28;20052;-75
2023/12/22 10:49:38;;;;;;;;;;;;;;;-1.96;100.00;94131.13;5029782;28;19989;-75
2023/12/22 10:52:04;;;;;;;;;;;;;;;-2.08;100.00;94136.47;5027878;28;19990;-75
2023/12/22 10:54:29;;;;;;;;;;;;;;;-2.27;100.00;94103.38;5021029;28;19966;-75
2023/12/22 10:56:58;;;;;;;;;;;;;;;-2.25;100.00;94140.56;5018642;28;19993;-76
2023/12/22 10:59:23;;;;;;;;;;;;;;;-2.26;100.00;94129.31;5027897;28;20538;-75
2023/12/22 11:01:49;;;;;;;;;;;;;;;-2.07;100.00;94101.59;5017881;28;20228;-74
2023/12/22 11:04:16;;;;;;;;;;;;;;;-1.86;100.00;94117.09;5020202;28;19993;-74
2023/12/22 11:06:41;;;;;;;;;;;;;;;-2.04;100.00;94124.78;5021514;28;19980;-66
2023/12/22 11:09:08;;;;;;;;;;;;;;;-2.30;100.00;94103.66;5012675;28;19990;-66
2023/12/22 11:11:34;;;;;;;;;;;;;;;-2.30;100.00;94112.31;5016491;28;20093;-65
2023/12/22 11:14:00;;;;;;;;;;;;;;;-2.22;100.00;94116.81;5024196;28;20088;-66
2023/12/22 11:16:25;;;;;;;;;;;;;;;-2.39;100.00;94097.44;5023303;28;20004;-67
2023/12/22 11:18:53;;;;;;;;;;;;;;;-2.40;100.00;94114.88;5022077;28;20457;-67
2023/12/22 11:21:19;;;;;;;;;;;;;;;-2.13;100.00;94089.91;5020648;28;20564;-66
2023/12/22 11:23:44;;;;;;;;;;;;;;;-2.29;100.00;94100.91;5005787;28;19969;-66
2023/12/22 11:26:11;;;;;;;;;;;;;;;-1.80;100.00;94084.41;5022438;28;19970;-66
2023/12/22 11:28:36;;;;;;;;;;;;;;;-2.04;100.00;94083.06;5018517;28;20039;-66
2023/12/22 11:31:01;;;;;;;;;;;;;;;-2.15;100.00;94078.81;5023713;28;19977;-66
2023/12/22 11:33:27;;;;;;;;;;;;;;;-2.06;100.00;94068.50;5022560;28;19998;-69
2023/12/22 11:35:53;;;;;;;;;;;;;;;-2.04;100.00;94077.03;5019969;28;20723;-69
2023/12/22 11:38:18;;;;;;;;;;;;;;;-1.92;100.00;94080.31;5021472;28;20020;-69
2023/12/22 11:40:44;;;;;;;;;;;;;;;-1.80;100.00;94050.50;5021538;28;20423;-68
2023/12/22 11:43:09;;;;;;;;;;;;;;;-1.68;100.00;94061.63;5019405;28;19982;-68
2023/12/22 11:45:35;;;;;;;;;;;;;;;-1.39;100.00;94063.31;5020709;28;20039;-69
2023/12/22 11:48:07;;;;;;;;;;;;;;;-1.84;100.00;94062.19;5016842;28;20029;-68
2023/12/22 11:50:33;;;;;;;;;;;;;;;-1.74;100.00;94056.94;5017247;28;19969;-69
2023/12/22 11:53:17;;;;;;;;;;;;;;;-2.11;100.00;94038.47;5022004;28;19990;-68
2023/12/22 11:56:03;;;;;;;;;;;;;;;-2.08;100.00;94067.84;5021554;28;20594;-68
2023/12/22 11:58:51;;;;;;;;;;;;;;;-2.01;100.00;94061.94;5018824;28;20615;-68
2023/12/22 12:01:16;;;;;;;;;;;;;;;-1.87;100.00;94055.47;5010683;28;21228;-68
2023/12/22 12:03:42;;;;;;;;;;;;;;;-0.97;100.00;94069.97;5024123;28;19973;-68
2023/12/22 12:06:11;;;;;;;;;;;;;;;-1.05;100.00;94066.38;5026006;28;19969;-68
2023/12/22 12:08:36;;;;;;;;;;;;;;;-1.16;100.00;94080.47;5026099;28;20092;-68
2023/12/22 12:11:03;;;;;;;;;;;;;;;-1.22;100.00;94076.63;5019932;28;20165;-68
2023/12/22 12:13:28;;;;;;;;;;;;;;;-1.54;100.00;94055.13;5019667;28;19997;-68
2023/12/22 12:15:55;;;;;;;;;;;;;;;-1.63;100.00;94075.06;5024424;28;20070;-67
2023/12/22 12:18:26;;;;;;;;;;;;;;;-1.57;100.00;94052.78;5023934;28;20049;-68
2023/12/22 12:20:51;;;;;;;;;;;;;;;-1.52;100.00;94074.06;5023685;28;20026;-67
2023/12/22 12:23:17;;;;;;;;;;;;;;;-0.35;99.91;94065.06;5029024;28;19969;-68
2023/12/22 12:25:42;;;;;;;;;;;;;;;-0.57;98.24;94081.03;5024087;28;19993;-68
2023/12/22 12:28:11;;;;;;;;;;;;;;;-0.25;96.55;94041.44;5025229;28;20118;-68
2023/12/22 12:30:36;;;;;;;;;;;;;;;-1.01;100.00;94057.28;5023422;28;19982;-69
2023/12/22 12:33:08;;;;;;;;;;;;;;;-1.61;100.00;94067.09;5024702;28;19989;-68
2023/12/22 12:35:33;;;;;;;;;;;;;;;-1.80;100.00;94063.53;5025782;28;20232;-68